sensor_id;sensor_type;location;lat;lon;timestamp;temperature;humidity
10441;DHT22;5268;49.346;9.522;2023-01-23T04:07:56;1.80;99.90
10441;DHT22;5268;49.346;9.522;2023-01-23T04:12:58;1.80;99.90
10441;DHT22;5268;49.346;9.522;2023-01-23T04:18:00;1.80;99.90
10441;DHT22;5268;49.346;9.522;2023-01-23T04:23:04;1.80;99.90
10441;DHT22;5268;49.346;9.522;2023-01-23T04:28:07;1.80;99.90
10441;DHT22;5268;49.346;9.522;2023-01-23T04:33:08;1.80;99.90
10441;DHT22;5268;49.346;9.522;2023-01-23T04:38:12;1.80;99.90
10441;DHT22;5268;49.346;9.522;2023-01-23T04:43:14;1.70;99.90
10441;DHT22;5268;49.346;9.522;2023-01-23T04:48:16;1.70;99.90
10441;DHT22;5268;49.346;9.522;2023-01-23T04:53:19;1.70;99.90
10441;DHT22;5268;49.346;9.522;2023-01-23T04:58:21;1.80;99.90
10441;DHT22;5268;49.346;9.522;2023-01-23T05:03:23;1.80;99.90
10441;DHT22;5268;49.346;9.522;2023-01-23T05:08:27;1.80;99.90
10441;DHT22;5268;49.346;9.522;2023-01-23T05:13:28;1.70;99.90
10441;DHT22;5268;49.346;9.522;2023-01-23T05:18:30;1.70;99.90
10441;DHT22;5268;49.346;9.522;2023-01-23T05:23:34;1.70;99.90
10441;DHT22;5268;49.346;9.522;2023-01-23T05:28:36;1.70;99.90
10441;DHT22;5268;49.346;9.522;2023-01-23T05:33:38;1.70;99.90
10441;DHT22;5268;49.346;9.522;2023-01-23T05:38:42;1.70;99.90
10441;DHT22;5268;49.346;9.522;2023-01-23T05:43:44;1.70;99.90
10441;DHT22;5268;49.346;9.522;2023-01-23T05:48:48;1.60;99.90
10441;DHT22;5268;49.346;9.522;2023-01-23T05:53:51;1.60;99.90
10441;DHT22;5268;49.346;9.522;2023-01-23T05:58:53;1.70;99.90
10441;DHT22;5268;49.346;9.522;2023-01-23T06:03:55;1.60;99.90
10441;DHT22;5268;49.346;9.522;2023-01-23T06:08:59;1.60;99.90
10441;DHT22;5268;49.346;9.522;2023-01-23T06:14:01;1.60;99.90
10441;DHT22;5268;49.346;9.522;2023-01-23T06:19:03;1.60;99.90
10441;DHT22;5268;49.346;9.522;2023-01-23T06:24:07;1.60;99.90
10441;DHT22;5268;49.346;9.522;2023-01-23T06:29:09;1.60;99.90
10441;DHT22;5268;49.346;9.522;2023-01-23T06:34:11;1.70;99.90
10441;DHT22;5268;49.346;9.522;2023-01-23T06:39:14;1.70;99.90
10441;DHT22;5268;49.346;9.522;2023-01-23T06:44:16;1.70;99.90
10441;DHT22;5268;49.346;9.522;2023-01-23T06:49:18;1.70;99.90
10441;DHT22;5268;49.346;9.522;2023-01-23T06:54:22;1.70;99.90
10441;DHT22;5268;49.346;9.522;2023-01-23T06:59:24;1.70;99.90
10441;DHT22;5268;49.346;9.522;2023-01-23T07:04:26;1.70;99.90
10441;DHT22;5268;49.346;9.522;2023-01-23T07:09:29;1.70;99.90
10441;DHT22;5268;49.346;9.522;2023-01-23T07:14:31;1.70;99.90
10441;DHT22;5268;49.346;9.522;2023-01-23T07:19:33;1.70;99.90
10441;DHT22;5268;49.346;9.522;2023-01-23T07:24:36;1.70;99.90
10441;DHT22;5268;49.346;9.522;2023-01-23T07:29:39;1.70;99.90
10441;DHT22;5268;49.346;9.522;2023-01-23T07:34:41;1.80;99.90
10441;DHT22;5268;49.346;9.522;2023-01-23T07:39:44;1.80;99.90
10441;DHT22;5268;49.346;9.522;2023-01-23T07:44:46;1.80;99.90
10441;DHT22;5268;49.346;9.522;2023-01-23T07:49:48;1.70;99.90
10441;DHT22;5268;49.346;9.522;2023-01-23T07:54:52;1.80;99.90
10441;DHT22;5268;49.346;9.522;2023-01-23T07:59:54;1.80;99.90
10441;DHT22;5268;49.346;9.522;2023-01-23T08:04:56;1.80;99.90
10441;DHT22;5268;49.346;9.522;2023-01-23T08:09:59;1.80;99.90
10441;DHT22;5268;49.346;9.522;2023-01-23T08:15:01;1.80;99.90
10441;DHT22;5268;49.346;9.522;2023-01-23T08:20:03;1.70;99.90
10441;DHT22;5268;49.346;9.522;2023-01-23T08:25:08;1.70;99.90
10441;DHT22;5268;49.346;9.522;2023-01-23T08:30:11;1.70;99.90
10441;DHT22;5268;49.346;9.522;2023-01-23T08:35:13;1.80;99.90
10441;DHT22;5268;49.346;9.522;2023-01-23T08:40:17;1.80;99.90
10441;DHT22;5268;49.346;9.522;2023-01-23T08:45:19;1.70;99.90
10441;DHT22;5268;49.346;9.522;2023-01-23T08:50:21;1.80;99.90
10441;DHT22;5268;49.346;9.522;2023-01-23T08:55:26;1.80;99.90
10441;DHT22;5268;49.346;9.522;2023-01-23T09:00:28;1.80;99.90
10441;DHT22;5268;49.346;9.522;2023-01-23T09:05:31;1.80;99.90
10441;DHT22;5268;49.346;9.522;2023-01-23T09:10:34;1.90;99.90
10441;DHT22;5268;49.346;9.522;2023-01-23T09:15:37;1.80;99.90
10441;DHT22;5268;49.346;9.522;2023-01-23T09:20:39;1.90;99.90
10441;DHT22;5268;49.346;9.522;2023-01-23T09:25:42;1.90;99.90
10441;DHT22;5268;49.346;9.522;2023-01-23T09:30:44;2.00;99.90
10441;DHT22;5268;49.346;9.522;2023-01-23T09:35:50;1.90;99.90
10441;DHT22;5268;49.346;9.522;2023-01-23T09:40:56;2.00;99.90
10441;DHT22;5268;49.346;9.522;2023-01-23T09:46:02;2.00;99.90
10441;DHT22;5268;49.346;9.522;2023-01-23T09:51:12;2.00;99.90
10441;DHT22;5268;49.346;9.522;2023-01-23T09:56:28;2.00;99.90
10441;DHT22;5268;49.346;9.522;2023-01-23T10:01:30;2.10;99.90
10441;DHT22;5268;49.346;9.522;2023-01-23T10:06:59;2.30;99.90
10441;DHT22;5268;49.346;9.522;2023-01-23T10:12:11;2.40;99.90
10441;DHT22;5268;49.346;9.522;2023-01-23T10:17:23;2.50;99.90
10441;DHT22;5268;49.346;9.522;2023-01-23T10:22:35;2.40;99.90
10441;DHT22;5268;49.346;9.522;2023-01-23T10:27:42;2.50;99.90
10441;DHT22;5268;49.346;9.522;2023-01-23T10:32:48;2.40;99.90
10441;DHT22;5268;49.346;9.522;2023-01-23T10:37:55;2.30;99.90
10441;DHT22;5268;49.346;9.522;2023-01-23T10:43:03;2.40;99.90
10441;DHT22;5268;49.346;9.522;2023-01-23T10:48:26;2.30;99.90
10441;DHT22;5268;49.346;9.522;2023-01-23T10:53:28;2.50;99.90
10441;DHT22;5268;49.346;9.522;2023-01-23T10:58:36;2.50;99.90
10441;DHT22;5268;49.346;9.522;2023-01-23T11:03:44;2.60;99.90
10441;DHT22;5268;49.346;9.522;2023-01-23T11:08:50;2.50;99.90
10441;DHT22;5268;49.346;9.522;2023-01-23T11:14:05;2.70;99.90
10441;DHT22;5268;49.346;9.522;2023-01-23T11:19:18;2.70;99.90
10441;DHT22;5268;49.346;9.522;2023-01-23T11:24:27;2.70;99.90
10441;DHT22;5268;49.346;9.522;2023-01-23T11:29:57;2.70;99.90
10441;DHT22;5268;49.346;9.522;2023-01-23T11:35:10;2.80;99.90
10441;DHT22;5268;49.346;9.522;2023-01-23T11:40:16;2.90;99.90
10441;DHT22;5268;49.346;9.522;2023-01-23T11:45:32;2.90;99.90
10441;DHT22;5268;49.346;9.522;2023-01-23T11:50:36;3.00;99.90
10441;DHT22;5268;49.346;9.522;2023-01-23T11:56:05;3.00;99.90
10441;DHT22;5268;49.346;9.522;2023-01-23T12:01:12;2.90;99.90
10441;DHT22;5268;49.346;9.522;2023-01-23T12:06:28;2.90;99.90
10441;DHT22;5268;49.346;9.522;2023-01-23T12:11:38;2.80;99.90
10441;DHT22;5268;49.346;9.522;2023-01-23T12:16:53;2.80;99.90
10441;DHT22;5268;49.346;9.522;2023-01-23T12:22:05;3.00;99.90
10441;DHT22;5268;49.346;9.522;2023-01-23T12:27:16;3.00;99.90
10441;DHT22;5268;49.346;9.522;2023-01-23T12:32:36;2.90;99.90
10441;DHT22;5268;49.346;9.522;2023-01-23T12:37:49;3.00;99.90
10441;DHT22;5268;49.346;9.522;2023-01-23T12:42:58;3.00;99.90
10441;DHT22;5268;49.346;9.522;2023-01-23T12:48:07;3.00;99.90
10441;DHT22;5268;49.346;9.522;2023-01-23T12:53:13;3.10;99.90
10441;DHT22;5268;49.346;9.522;2023-01-23T12:58:17;3.10;99.90
10441;DHT22;5268;49.346;9.522;2023-01-23T13:03:54;3.20;99.90
10441;DHT22;5268;49.346;9.522;2023-01-23T13:09:04;3.10;99.90
10441;DHT22;5268;49.346;9.522;2023-01-23T13:14:20;3.10;99.90
10441;DHT22;5268;49.346;9.522;2023-01-23T13:19:26;3.00;99.90
10441;DHT22;5268;49.346;9.522;2023-01-23T13:24:46;3.20;99.90
10441;DHT22;5268;49.346;9.522;2023-01-23T13:30:38;3.20;99.90
10441;DHT22;5268;49.346;9.522;2023-01-23T13:35:54;3.20;99.90
10441;DHT22;5268;49.346;9.522;2023-01-23T13:41:26;3.20;99.90
10441;DHT22;5268;49.346;9.522;2023-01-23T13:46:36;3.20;99.90
10441;DHT22;5268;49.346;9.522;2023-01-23T13:51:46;3.10;99.90
10441;DHT22;5268;49.346;9.522;2023-01-23T13:56:50;3.10;99.90
10441;DHT22;5268;49.346;9.522;2023-01-23T14:01:57;3.10;99.90
10441;DHT22;5268;49.346;9.522;2023-01-23T14:07:27;3.00;99.90
10441;DHT22;5268;49.346;9.522;2023-01-23T14:12:46;2.90;99.90
10441;DHT22;5268;49.346;9.522;2023-01-23T14:17:48;3.00;99.90
10441;DHT22;5268;49.346;9.522;2023-01-23T14:22:54;3.00;99.90
10441;DHT22;5268;49.346;9.522;2023-01-23T14:28:03;3.00;99.90
10441;DHT22;5268;49.346;9.522;2023-01-23T14:33:10;3.20;99.90
10441;DHT22;5268;49.346;9.522;2023-01-23T14:38:20;3.20;99.90
10441;DHT22;5268;49.346;9.522;2023-01-23T14:43:25;3.30;99.90
10441;DHT22;5268;49.346;9.522;2023-01-23T14:48:32;3.20;99.90
10441;DHT22;5268;49.346;9.522;2023-01-23T14:53:40;3.20;99.90
10441;DHT22;5268;49.346;9.522;2023-01-23T14:58:42;3.10;99.90
10441;DHT22;5268;49.346;9.522;2023-01-23T15:03:56;3.00;99.90
10441;DHT22;5268;49.346;9.522;2023-01-23T15:09:07;3.00;99.90
10441;DHT22;5268;49.346;9.522;2023-01-23T15:14:22;3.10;99.90
10441;DHT22;5268;49.346;9.522;2023-01-23T15:19:26;3.10;99.90
10441;DHT22;5268;49.346;9.522;2023-01-23T15:24:30;3.10;99.90
10441;DHT22;5268;49.346;9.522;2023-01-23T15:29:32;3.10;99.90
10441;DHT22;5268;49.346;9.522;2023-01-23T15:34:35;3.20;99.90
10441;DHT22;5268;49.346;9.522;2023-01-23T15:39:47;3.20;99.90
10441;DHT22;5268;49.346;9.522;2023-01-23T15:44:50;3.20;99.90
10441;DHT22;5268;49.346;9.522;2023-01-23T15:49:52;3.30;99.90
10441;DHT22;5268;49.346;9.522;2023-01-23T15:54:58;3.20;99.90
10441;DHT22;5268;49.346;9.522;2023-01-23T16:00:01;3.20;99.90
10441;DHT22;5268;49.346;9.522;2023-01-23T16:05:03;3.20;99.90
10441;DHT22;5268;49.346;9.522;2023-01-23T16:10:16;3.20;99.90
10441;DHT22;5268;49.346;9.522;2023-01-23T16:15:21;3.30;99.90
10441;DHT22;5268;49.346;9.522;2023-01-23T16:20:26;3.20;99.90
10441;DHT22;5268;49.346;9.522;2023-01-23T16:25:32;3.20;99.90
10441;DHT22;5268;49.346;9.522;2023-01-23T16:30:34;3.20;99.90
10441;DHT22;5268;49.346;9.522;2023-01-23T16:35:37;3.20;99.90
10441;DHT22;5268;49.346;9.522;2023-01-23T16:40:40;3.20;99.90
10441;DHT22;5268;49.346;9.522;2023-01-23T16:45:42;3.10;99.90
10441;DHT22;5268;49.346;9.522;2023-01-23T16:50:47;3.10;99.90
10441;DHT22;5268;49.346;9.522;2023-01-23T16:55:52;3.00;99.90
10441;DHT22;5268;49.346;9.522;2023-01-23T17:00:57;2.90;99.90
10441;DHT22;5268;49.346;9.522;2023-01-23T17:06:01;2.90;99.90
10441;DHT22;5268;49.346;9.522;2023-01-23T17:11:05;2.90;99.90
10441;DHT22;5268;49.346;9.522;2023-01-23T17:16:07;2.90;99.90
10441;DHT22;5268;49.346;9.522;2023-01-23T17:21:10;2.90;99.90
10441;DHT22;5268;49.346;9.522;2023-01-23T17:26:18;2.90;99.90
10441;DHT22;5268;49.346;9.522;2023-01-23T17:31:23;2.80;99.90
10441;DHT22;5268;49.346;9.522;2023-01-23T17:36:26;2.90;99.90
10441;DHT22;5268;49.346;9.522;2023-01-23T17:41:29;2.80;99.90
10441;DHT22;5268;49.346;9.522;2023-01-23T17:46:33;2.90;99.90
10441;DHT22;5268;49.346;9.522;2023-01-23T17:51:37;2.90;99.90
10441;DHT22;5268;49.346;9.522;2023-01-23T17:56:40;2.80;99.90
10441;DHT22;5268;49.346;9.522;2023-01-23T18:01:42;2.90;99.90
10441;DHT22;5268;49.346;9.522;2023-01-23T18:06:44;2.90;99.90
10441;DHT22;5268;49.346;9.522;2023-01-23T18:11:48;3.00;99.90
10441;DHT22;5268;49.346;9.522;2023-01-23T18:16:54;3.00;99.90
10441;DHT22;5268;49.346;9.522;2023-01-23T18:21:56;2.90;99.90
10441;DHT22;5268;49.346;9.522;2023-01-23T18:27:09;2.90;99.90
10441;DHT22;5268;49.346;9.522;2023-01-23T18:37:52;3.00;99.90
10441;DHT22;5268;49.346;9.522;2023-01-23T18:43:07;2.90;99.90
10441;DHT22;5268;49.346;9.522;2023-01-23T18:48:12;2.90;99.90
10441;DHT22;5268;49.346;9.522;2023-01-23T18:53:21;2.90;99.90
10441;DHT22;5268;49.346;9.522;2023-01-23T18:58:43;3.00;99.90
10441;DHT22;5268;49.346;9.522;2023-01-23T19:03:49;3.10;99.90
10441;DHT22;5268;49.346;9.522;2023-01-23T19:08:53;3.00;99.90
10441;DHT22;5268;49.346;9.522;2023-01-23T19:14:05;3.00;99.90
10441;DHT22;5268;49.346;9.522;2023-01-23T19:19:18;3.10;99.90
10441;DHT22;5268;49.346;9.522;2023-01-23T19:24:22;3.20;99.90
10441;DHT22;5268;49.346;9.522;2023-01-23T19:29:26;3.10;99.90
10441;DHT22;5268;49.346;9.522;2023-01-23T19:34:28;3.10;99.90
10441;DHT22;5268;49.346;9.522;2023-01-23T19:39:30;3.10;99.90
10441;DHT22;5268;49.346;9.522;2023-01-23T19:44:34;3.10;99.90
10441;DHT22;5268;49.346;9.522;2023-01-23T19:49:36;3.10;99.90
10441;DHT22;5268;49.346;9.522;2023-01-23T19:54:38;3.00;99.90
10441;DHT22;5268;49.346;9.522;2023-01-23T19:59:42;2.90;99.90
10441;DHT22;5268;49.346;9.522;2023-01-23T20:04:44;3.00;99.90
10441;DHT22;5268;49.346;9.522;2023-01-23T20:09:46;3.00;99.90
10441;DHT22;5268;49.346;9.522;2023-01-23T20:14:49;3.10;99.90
10441;DHT22;5268;49.346;9.522;2023-01-23T20:19:51;3.10;99.90
10441;DHT22;5268;49.346;9.522;2023-01-23T20:24:53;3.00;99.90
10441;DHT22;5268;49.346;9.522;2023-01-23T20:29:57;3.00;99.90
10441;DHT22;5268;49.346;9.522;2023-01-23T20:34:59;3.00;99.90
10441;DHT22;5268;49.346;9.522;2023-01-23T20:40:01;2.90;99.90
10441;DHT22;5268;49.346;9.522;2023-01-23T20:45:05;3.00;99.90
10441;DHT22;5268;49.346;9.522;2023-01-23T20:50:08;3.00;99.90
10441;DHT22;5268;49.346;9.522;2023-01-23T20:55:11;3.00;99.90
10441;DHT22;5268;49.346;9.522;2023-01-23T21:00:15;3.00;99.90
10441;DHT22;5268;49.346;9.522;2023-01-23T21:05:17;3.00;99.90
10441;DHT22;5268;49.346;9.522;2023-01-23T21:10:19;3.00;99.90
10441;DHT22;5268;49.346;9.522;2023-01-23T21:15:23;3.00;99.90
10441;DHT22;5268;49.346;9.522;2023-01-23T21:20:25;2.90;99.90
10441;DHT22;5268;49.346;9.522;2023-01-23T21:25:26;2.90;99.90
10441;DHT22;5268;49.346;9.522;2023-01-23T21:30:30;2.90;99.90
10441;DHT22;5268;49.346;9.522;2023-01-23T21:35:32;2.90;99.90
10441;DHT22;5268;49.346;9.522;2023-01-23T21:40:34;2.90;99.90
10441;DHT22;5268;49.346;9.522;2023-01-23T21:45:37;2.90;99.90
10441;DHT22;5268;49.346;9.522;2023-01-23T21:50:39;2.90;99.90
10441;DHT22;5268;49.346;9.522;2023-01-23T21:55:41;2.80;99.90
10441;DHT22;5268;49.346;9.522;2023-01-23T22:00:44;2.90;99.90
10441;DHT22;5268;49.346;9.522;2023-01-23T22:06:04;2.80;99.90
10441;DHT22;5268;49.346;9.522;2023-01-23T22:11:07;2.80;99.90
10441;DHT22;5268;49.346;9.522;2023-01-23T22:16:10;2.80;99.90
10441;DHT22;5268;49.346;9.522;2023-01-23T22:21:12;2.80;99.90
10441;DHT22;5268;49.346;9.522;2023-01-23T22:26:15;2.70;99.90
10441;DHT22;5268;49.346;9.522;2023-01-23T22:31:19;2.80;99.90
10441;DHT22;5268;49.346;9.522;2023-01-23T22:36:20;2.70;99.90
10441;DHT22;5268;49.346;9.522;2023-01-23T22:41:23;2.70;99.90
10441;DHT22;5268;49.346;9.522;2023-01-23T22:46:27;2.70;99.90
10441;DHT22;5268;49.346;9.522;2023-01-23T22:51:31;2.80;99.90
